sensor_id;sensor_type;location;lat;lon;timestamp;pressure;altitude;pressure_sealevel;temperature;humidity
64908;BME280;69061;52.236;5.188;2023-05-23T00:01:07;101910.84;;;16.76;77.67
64908;BME280;69061;52.236;5.188;2023-05-23T00:03:35;101915.44;;;16.75;77.97
64908;BME280;69061;52.236;5.188;2023-05-23T00:06:05;101916.56;;;16.71;78.10
64908;BME280;69061;52.236;5.188;2023-05-23T00:08:32;101920.78;;;16.64;77.50
64908;BME280;69061;52.236;5.188;2023-05-23T00:10:58;101923.09;;;16.66;78.15
64908;BME280;69061;52.236;5.188;2023-05-23T00:13:25;101930.00;;;16.67;77.88
64908;BME280;69061;52.236;5.188;2023-05-23T00:15:52;101921.16;;;16.66;78.06
64908;BME280;69061;52.236;5.188;2023-05-23T00:18:18;101931.53;;;16.72;77.88
64908;BME280;69061;52.236;5.188;2023-05-23T00:20:46;101918.88;;;16.69;77.86
64908;BME280;69061;52.236;5.188;2023-05-23T00:23:13;101926.16;;;16.72;78.20
64908;BME280;69061;52.236;5.188;2023-05-23T00:25:43;101937.69;;;16.76;78.66
64908;BME280;69061;52.236;5.188;2023-05-23T00:28:13;101933.06;;;16.76;78.61
64908;BME280;69061;52.236;5.188;2023-05-23T00:30:39;101932.69;;;16.67;78.59
64908;BME280;69061;52.236;5.188;2023-05-23T00:33:06;101931.53;;;16.64;78.37
64908;BME280;69061;52.236;5.188;2023-05-23T00:35:33;101930.72;;;16.60;78.50
64908;BME280;69061;52.236;5.188;2023-05-23T00:38:01;101933.78;;;16.62;79.36
64908;BME280;69061;52.236;5.188;2023-05-23T00:40:27;101917.66;;;16.55;79.72
64908;BME280;69061;52.236;5.188;2023-05-23T00:42:54;101924.59;;;16.56;79.10
64908;BME280;69061;52.236;5.188;2023-05-23T00:45:21;101936.06;;;16.53;79.65
64908;BME280;69061;52.236;5.188;2023-05-23T00:47:48;101950.59;;;16.48;78.92
64908;BME280;69061;52.236;5.188;2023-05-23T00:50:15;101936.78;;;16.43;79.23
64908;BME280;69061;52.236;5.188;2023-05-23T00:52:43;101942.16;;;16.43;79.62
64908;BME280;69061;52.236;5.188;2023-05-23T00:55:12;101946.00;;;16.45;80.56
64908;BME280;69061;52.236;5.188;2023-05-23T00:57:39;101946.00;;;16.49;80.05
64908;BME280;69061;52.236;5.188;2023-05-23T01:00:09;101947.13;;;16.48;79.93
64908;BME280;69061;52.236;5.188;2023-05-23T01:02:39;101947.53;;;16.46;80.11
64908;BME280;69061;52.236;5.188;2023-05-23T01:05:08;101936.38;;;16.41;81.57
64908;BME280;69061;52.236;5.188;2023-05-23T01:07:35;101941.75;;;16.41;82.30
64908;BME280;69061;52.236;5.188;2023-05-23T01:10:02;101934.84;;;16.40;82.38
64908;BME280;69061;52.236;5.188;2023-05-23T01:12:36;101936.00;;;16.39;82.46
64908;BME280;69061;52.236;5.188;2023-05-23T01:15:08;101935.59;;;16.37;83.60
64908;BME280;69061;52.236;5.188;2023-05-23T01:17:42;101944.78;;;16.36;84.26
64908;BME280;69061;52.236;5.188;2023-05-23T01:20:11;101937.09;;;16.34;83.36
64908;BME280;69061;52.236;5.188;2023-05-23T01:22:58;101937.50;;;16.32;83.94
64908;BME280;69061;52.236;5.188;2023-05-23T01:25:33;101939.03;;;16.33;83.70
64908;BME280;69061;52.236;5.188;2023-05-23T01:28:07;101941.00;;;16.40;83.33
64908;BME280;69061;52.236;5.188;2023-05-23T01:30:38;101940.19;;;16.40;83.42
64908;BME280;69061;52.236;5.188;2023-05-23T01:33:06;101941.00;;;16.44;82.63
64908;BME280;69061;52.236;5.188;2023-05-23T01:35:33;101941.31;;;16.31;82.09
64908;BME280;69061;52.236;5.188;2023-05-23T01:38:01;101950.53;;;16.30;83.20
64908;BME280;69061;52.236;5.188;2023-05-23T01:40:27;101942.50;;;16.38;82.65
64908;BME280;69061;52.236;5.188;2023-05-23T01:42:54;101947.09;;;16.37;82.35
64908;BME280;69061;52.236;5.188;2023-05-23T01:45:25;101958.97;;;16.40;82.28
64908;BME280;69061;52.236;5.188;2023-05-23T01:47:53;101945.50;;;16.25;81.91
64908;BME280;69061;52.236;5.188;2023-05-23T01:50:21;101955.50;;;16.36;81.62
64908;BME280;69061;52.236;5.188;2023-05-23T01:52:48;101955.50;;;16.36;81.90
64908;BME280;69061;52.236;5.188;2023-05-23T01:55:16;101962.84;;;16.39;82.00
64908;BME280;69061;52.236;5.188;2023-05-23T01:57:49;101957.41;;;16.31;82.27
64908;BME280;69061;52.236;5.188;2023-05-23T02:00:17;101951.28;;;16.31;81.95
64908;BME280;69061;52.236;5.188;2023-05-23T02:02:45;101959.34;;;16.35;82.01
64908;BME280;69061;52.236;5.188;2023-05-23T02:05:12;101948.25;;;16.36;81.23
64908;BME280;69061;52.236;5.188;2023-05-23T02:07:38;101950.94;;;16.40;81.38
64908;BME280;69061;52.236;5.188;2023-05-23T02:10:07;101952.81;;;16.36;81.35
64908;BME280;69061;52.236;5.188;2023-05-23T02:12:34;101944.78;;;16.36;80.52
64908;BME280;69061;52.236;5.188;2023-05-23T02:15:01;101952.44;;;16.33;80.94
64908;BME280;69061;52.236;5.188;2023-05-23T02:17:28;101965.88;;;16.37;81.63
64908;BME280;69061;52.236;5.188;2023-05-23T02:19:56;101960.88;;;16.36;80.90
64908;BME280;69061;52.236;5.188;2023-05-23T02:22:23;101959.34;;;16.35;80.98
64908;BME280;69061;52.236;5.188;2023-05-23T02:24:50;101966.69;;;16.41;80.79
64908;BME280;69061;52.236;5.188;2023-05-23T02:27:17;101962.44;;;16.44;80.95
64908;BME280;69061;52.236;5.188;2023-05-23T02:29:43;101970.53;;;16.47;81.07
64908;BME280;69061;52.236;5.188;2023-05-23T02:32:10;101975.91;;;16.47;81.40
64908;BME280;69061;52.236;5.188;2023-05-23T02:34:36;101979.34;;;16.48;81.57
64908;BME280;69061;52.236;5.188;2023-05-23T02:37:05;101995.06;;;16.46;80.67
64908;BME280;69061;52.236;5.188;2023-05-23T02:39:31;101984.28;;;16.39;81.37
64908;BME280;69061;52.236;5.188;2023-05-23T02:41:58;101992.72;;;16.41;80.93
64908;BME280;69061;52.236;5.188;2023-05-23T02:44:24;101992.72;;;16.41;80.34
64908;BME280;69061;52.236;5.188;2023-05-23T02:46:51;101993.50;;;16.45;79.93
64908;BME280;69061;52.236;5.188;2023-05-23T02:49:17;101998.50;;;16.43;80.04
64908;BME280;69061;52.236;5.188;2023-05-23T02:51:44;101999.59;;;16.35;79.13
64908;BME280;69061;52.236;5.188;2023-05-23T02:54:12;101994.16;;;16.27;79.38
64908;BME280;69061;52.236;5.188;2023-05-23T02:56:38;101994.16;;;16.24;79.48
64908;BME280;69061;52.236;5.188;2023-05-23T02:59:05;101994.19;;;16.31;79.51
64908;BME280;69061;52.236;5.188;2023-05-23T03:01:31;102001.88;;;16.32;78.87
64908;BME280;69061;52.236;5.188;2023-05-23T03:03:58;102003.00;;;16.31;78.53
64908;BME280;69061;52.236;5.188;2023-05-23T03:06:25;102007.59;;;16.27;78.44
64908;BME280;69061;52.236;5.188;2023-05-23T03:08:51;101999.09;;;16.18;78.74
64908;BME280;69061;52.236;5.188;2023-05-23T03:11:19;102000.25;;;16.17;79.21
64908;BME280;69061;52.236;5.188;2023-05-23T03:13:46;101998.28;;;16.10;79.12
64908;BME280;69061;52.236;5.188;2023-05-23T03:16:13;102000.94;;;16.07;78.74
64908;BME280;69061;52.236;5.188;2023-05-23T03:18:40;101997.13;;;16.08;79.65
64908;BME280;69061;52.236;5.188;2023-05-23T03:21:06;102000.97;;;16.14;79.64
64908;BME280;69061;52.236;5.188;2023-05-23T03:23:33;102001.00;;;16.17;79.07
64908;BME280;69061;52.236;5.188;2023-05-23T03:26:00;102002.56;;;16.19;78.59
64908;BME280;69061;52.236;5.188;2023-05-23T03:28:29;101995.22;;;16.12;77.94
64908;BME280;69061;52.236;5.188;2023-05-23T03:30:56;102002.84;;;16.10;77.65
64908;BME280;69061;52.236;5.188;2023-05-23T03:33:22;102003.22;;;16.08;77.89
64908;BME280;69061;52.236;5.188;2023-05-23T03:35:49;102003.22;;;16.08;78.21
64908;BME280;69061;52.236;5.188;2023-05-23T03:38:17;102010.09;;;16.06;78.15
64908;BME280;69061;52.236;5.188;2023-05-23T03:40:44;102020.13;;;16.09;77.52
64908;BME280;69061;52.236;5.188;2023-05-23T03:43:11;102016.59;;;16.05;77.48
64908;BME280;69061;52.236;5.188;2023-05-23T03:45:40;102018.50;;;16.00;77.12
64908;BME280;69061;52.236;5.188;2023-05-23T03:48:07;102012.69;;;15.95;77.79
64908;BME280;69061;52.236;5.188;2023-05-23T03:50:33;102020.78;;;15.98;78.33
64908;BME280;69061;52.236;5.188;2023-05-23T03:53:00;102015.72;;;15.90;78.31
64908;BME280;69061;52.236;5.188;2023-05-23T03:55:27;102016.91;;;15.92;78.29
64908;BME280;69061;52.236;5.188;2023-05-23T03:57:56;102017.69;;;15.93;78.69
64908;BME280;69061;52.236;5.188;2023-05-23T04:00:23;102036.06;;;15.94;78.39
64908;BME280;69061;52.236;5.188;2023-05-23T04:02:51;102027.69;;;15.99;77.68
64908;BME280;69061;52.236;5.188;2023-05-23T04:05:18;102040.31;;;15.95;77.55
64908;BME280;69061;52.236;5.188;2023-05-23T04:07:45;102042.19;;;15.91;77.40
64908;BME280;69061;52.236;5.188;2023-05-23T04:10:11;102037.94;;;15.90;77.47
64908;BME280;69061;52.236;5.188;2023-05-23T04:12:38;102036.44;;;15.93;77.92
64908;BME280;69061;52.236;5.188;2023-05-23T04:15:07;102035.28;;;15.90;76.92
64908;BME280;69061;52.236;5.188;2023-05-23T04:17:33;102051.38;;;15.94;76.48
64908;BME280;69061;52.236;5.188;2023-05-23T04:20:05;102047.88;;;15.90;76.19
64908;BME280;69061;52.236;5.188;2023-05-23T04:22:32;102051.75;;;15.92;76.98
64908;BME280;69061;52.236;5.188;2023-05-23T04:24:59;102067.50;;;15.97;77.53
64908;BME280;69061;52.236;5.188;2023-05-23T04:27:25;102056.78;;;15.97;76.86
64908;BME280;69061;52.236;5.188;2023-05-23T04:29:52;102068.63;;;15.96;76.37
64908;BME280;69061;52.236;5.188;2023-05-23T04:32:18;102068.53;;;15.82;76.10
64908;BME280;69061;52.236;5.188;2023-05-23T04:34:47;102073.47;;;15.80;76.34
64908;BME280;69061;52.236;5.188;2023-05-23T04:37:15;102079.47;;;15.70;76.82
64908;BME280;69061;52.236;5.188;2023-05-23T04:39:46;102078.69;;;15.69;76.43
64908;BME280;69061;52.236;5.188;2023-05-23T04:42:13;102074.75;;;15.59;76.67
64908;BME280;69061;52.236;5.188;2023-05-23T04:44:40;102075.50;;;15.56;76.84
64908;BME280;69061;52.236;5.188;2023-05-23T04:47:07;102072.06;;;15.59;76.50
64908;BME280;69061;52.236;5.188;2023-05-23T04:49:35;102093.53;;;15.59;76.56
64908;BME280;69061;52.236;5.188;2023-05-23T04:52:01;102087.03;;;15.60;76.16
64908;BME280;69061;52.236;5.188;2023-05-23T04:54:29;102086.59;;;15.58;75.15
64908;BME280;69061;52.236;5.188;2023-05-23T04:56:57;102083.53;;;15.56;75.41
64908;BME280;69061;52.236;5.188;2023-05-23T04:59:24;102090.06;;;15.59;75.26
64908;BME280;69061;52.236;5.188;2023-05-23T05:01:50;102093.06;;;15.54;75.32
64908;BME280;69061;52.236;5.188;2023-05-23T05:04:17;102102.69;;;15.58;74.77
64908;BME280;69061;52.236;5.188;2023-05-23T05:06:43;102109.97;;;15.58;74.62
64908;BME280;69061;52.236;5.188;2023-05-23T05:09:12;102108.03;;;15.55;73.54
64908;BME280;69061;52.236;5.188;2023-05-23T05:11:40;102106.88;;;15.56;73.09
64908;BME280;69061;52.236;5.188;2023-05-23T05:14:07;102101.81;;;15.47;72.90
64908;BME280;69061;52.236;5.188;2023-05-23T05:16:33;102128.28;;;15.52;72.96
64908;BME280;69061;52.236;5.188;2023-05-23T05:19:00;102121.75;;;15.53;72.42
64908;BME280;69061;52.236;5.188;2023-05-23T05:21:27;102130.47;;;15.46;72.11
64908;BME280;69061;52.236;5.188;2023-05-23T05:23:53;102144.34;;;15.52;72.23
64908;BME280;69061;52.236;5.188;2023-05-23T05:26:20;102142.38;;;15.49;72.43
64908;BME280;69061;52.236;5.188;2023-05-23T05:28:48;102143.50;;;15.44;71.62
64908;BME280;69061;52.236;5.188;2023-05-23T05:31:15;102158.94;;;15.55;71.26
64908;BME280;69061;52.236;5.188;2023-05-23T05:33:43;102151.72;;;15.59;71.13
64908;BME280;69061;52.236;5.188;2023-05-23T05:36:10;102165.50;;;15.61;71.33
64908;BME280;69061;52.236;5.188;2023-05-23T05:38:36;102161.28;;;15.60;70.54
64908;BME280;69061;52.236;5.188;2023-05-23T05:41:03;102156.66;;;15.57;69.15
64908;BME280;69061;52.236;5.188;2023-05-23T05:43:30;102160.44;;;15.52;68.87
64908;BME280;69061;52.236;5.188;2023-05-23T05:45:58;102170.78;;;15.54;70.28
64908;BME280;69061;52.236;5.188;2023-05-23T05:48:24;102162.78;;;15.57;70.89
64908;BME280;69061;52.236;5.188;2023-05-23T05:50:51;102173.81;;;15.52;70.32
64908;BME280;69061;52.236;5.188;2023-05-23T05:53:17;102172.66;;;15.53;71.50
64908;BME280;69061;52.236;5.188;2023-05-23T05:55:44;102185.00;;;15.58;69.91
64908;BME280;69061;52.236;5.188;2023-05-23T05:58:10;102173.41;;;15.50;70.54
64908;BME280;69061;52.236;5.188;2023-05-23T06:00:37;102173.34;;;15.46;70.42
64908;BME280;69061;52.236;5.188;2023-05-23T06:03:07;102164.59;;;15.49;70.96
64908;BME280;69061;52.236;5.188;2023-05-23T06:05:34;102175.00;;;15.55;70.66
64908;BME280;69061;52.236;5.188;2023-05-23T06:08:02;102173.91;;;15.59;70.92
64908;BME280;69061;52.236;5.188;2023-05-23T06:10:29;102171.22;;;15.59;71.17
64908;BME280;69061;52.236;5.188;2023-05-23T06:12:56;102174.28;;;15.58;70.56
64908;BME280;69061;52.236;5.188;2023-05-23T06:15:23;102174.28;;;15.58;70.85
64908;BME280;69061;52.236;5.188;2023-05-23T06:17:50;102170.50;;;15.62;71.37
64908;BME280;69061;52.236;5.188;2023-05-23T06:20:18;102182.38;;;15.61;71.08
64908;BME280;69061;52.236;5.188;2023-05-23T06:22:44;102192.59;;;15.56;71.27
64908;BME280;69061;52.236;5.188;2023-05-23T06:25:11;102187.91;;;15.45;71.71
64908;BME280;69061;52.236;5.188;2023-05-23T06:27:38;102180.22;;;15.44;72.51
64908;BME280;69061;52.236;5.188;2023-05-23T06:30:05;102192.47;;;15.45;72.86
64908;BME280;69061;52.236;5.188;2023-05-23T06:32:32;102187.09;;;15.41;73.29
64908;BME280;69061;52.236;5.188;2023-05-23T06:34:59;102191.63;;;15.37;73.38
64908;BME280;69061;52.236;5.188;2023-05-23T06:37:27;102190.53;;;15.42;72.95
64908;BME280;69061;52.236;5.188;2023-05-23T06:39:53;102190.16;;;15.43;73.67
64908;BME280;69061;52.236;5.188;2023-05-23T06:42:20;102193.25;;;15.45;73.83
64908;BME280;69061;52.236;5.188;2023-05-23T06:44:49;102199.38;;;15.46;73.76
64908;BME280;69061;52.236;5.188;2023-05-23T06:47:16;102197.00;;;15.41;73.86
64908;BME280;69061;52.236;5.188;2023-05-23T06:49:42;102191.50;;;15.30;74.36
64908;BME280;69061;52.236;5.188;2023-05-23T06:52:09;102196.34;;;15.21;74.17
64908;BME280;69061;52.236;5.188;2023-05-23T06:54:37;102192.50;;;15.18;74.26
64908;BME280;69061;52.236;5.188;2023-05-23T06:57:04;102206.34;;;15.24;75.00
64908;BME280;69061;52.236;5.188;2023-05-23T06:59:31;102203.78;;;15.31;74.11
64908;BME280;69061;52.236;5.188;2023-05-23T07:01:57;102210.72;;;15.36;73.62
64908;BME280;69061;52.236;5.188;2023-05-23T07:04:24;102217.69;;;15.40;73.24
64908;BME280;69061;52.236;5.188;2023-05-23T07:06:52;102208.97;;;15.47;72.58
64908;BME280;69061;52.236;5.188;2023-05-23T07:09:18;102229.41;;;15.59;72.37
64908;BME280;69061;52.236;5.188;2023-05-23T07:11:46;102221.84;;;15.64;70.79
64908;BME280;69061;52.236;5.188;2023-05-23T07:14:14;102225.00;;;15.74;69.66
64908;BME280;69061;52.236;5.188;2023-05-23T07:16:40;102227.03;;;15.80;68.29
64908;BME280;69061;52.236;5.188;2023-05-23T07:19:07;102229.03;;;15.87;69.03
64908;BME280;69061;52.236;5.188;2023-05-23T07:21:33;102215.97;;;15.86;68.26
64908;BME280;69061;52.236;5.188;2023-05-23T07:24:00;102224.44;;;15.88;67.29
64908;BME280;69061;52.236;5.188;2023-05-23T07:26:26;102233.59;;;15.83;67.33
64908;BME280;69061;52.236;5.188;2023-05-23T07:28:54;102237.75;;;15.80;66.23
64908;BME280;69061;52.236;5.188;2023-05-23T07:31:21;102230.47;;;15.81;66.82
64908;BME280;69061;52.236;5.188;2023-05-23T07:33:47;102247.75;;;15.83;66.98
64908;BME280;69061;52.236;5.188;2023-05-23T07:36:14;102235.47;;;15.82;65.52
64908;BME280;69061;52.236;5.188;2023-05-23T07:38:41;102235.91;;;15.88;66.23
64908;BME280;69061;52.236;5.188;2023-05-23T07:41:07;102231.81;;;15.94;65.64
64908;BME280;69061;52.236;5.188;2023-05-23T07:43:34;102234.66;;;16.09;64.84
64908;BME280;69061;52.236;5.188;2023-05-23T07:46:02;102243.16;;;16.18;64.93
64908;BME280;69061;52.236;5.188;2023-05-23T07:48:28;102244.72;;;16.19;63.95
64908;BME280;69061;52.236;5.188;2023-05-23T07:50:56;102240.47;;;16.18;63.89
64908;BME280;69061;52.236;5.188;2023-05-23T07:53:22;102238.53;;;16.15;63.53
64908;BME280;69061;52.236;5.188;2023-05-23T07:55:49;102246.91;;;16.10;64.28
64908;BME280;69061;52.236;5.188;2023-05-23T07:58:15;102251.56;;;16.13;64.10
64908;BME280;69061;52.236;5.188;2023-05-23T08:00:42;102246.22;;;16.16;64.33
64908;BME280;69061;52.236;5.188;2023-05-23T08:03:10;102248.91;;;16.16;63.40
64908;BME280;69061;52.236;5.188;2023-05-23T08:05:37;102255.38;;;16.15;62.83
64908;BME280;69061;52.236;5.188;2023-05-23T08:08:03;102254.63;;;16.15;62.54
64908;BME280;69061;52.236;5.188;2023-05-23T08:10:30;102252.69;;;16.12;62.35
64908;BME280;69061;52.236;5.188;2023-05-23T08:12:58;102253.19;;;16.25;63.33
64908;BME280;69061;52.236;5.188;2023-05-23T08:15:28;102257.16;;;16.38;62.05
64908;BME280;69061;52.236;5.188;2023-05-23T08:17:55;102269.53;;;16.46;62.66
64908;BME280;69061;52.236;5.188;2023-05-23T08:20:24;102251.22;;;16.56;61.29
64908;BME280;69061;52.236;5.188;2023-05-23T08:22:56;102268.16;;;16.63;62.01
64908;BME280;69061;52.236;5.188;2023-05-23T08:25:23;102273.91;;;16.65;62.15
64908;BME280;69061;52.236;5.188;2023-05-23T08:27:49;102265.97;;;16.76;61.90
64908;BME280;69061;52.236;5.188;2023-05-23T08:30:16;102265.75;;;16.92;61.32
64908;BME280;69061;52.236;5.188;2023-05-23T08:32:42;102258.50;;;16.96;61.44
64908;BME280;69061;52.236;5.188;2023-05-23T08:35:09;102271.56;;;16.98;60.26
64908;BME280;69061;52.236;5.188;2023-05-23T08:37:37;102270.81;;;17.01;60.21
64908;BME280;69061;52.236;5.188;2023-05-23T08:40:06;102274.75;;;17.14;60.24
64908;BME280;69061;52.236;5.188;2023-05-23T08:42:39;102273.69;;;17.26;59.45
64908;BME280;69061;52.236;5.188;2023-05-23T08:45:07;102282.06;;;17.17;59.05
64908;BME280;69061;52.236;5.188;2023-05-23T08:47:36;102277.47;;;17.18;59.91
64908;BME280;69061;52.236;5.188;2023-05-23T08:50:04;102288.69;;;17.31;59.73
64908;BME280;69061;52.236;5.188;2023-05-23T08:52:34;102288.78;;;17.42;58.43
64908;BME280;69061;52.236;5.188;2023-05-23T08:55:05;102296.84;;;17.42;57.20
64908;BME280;69061;52.236;5.188;2023-05-23T08:57:32;102298.69;;;17.34;56.32
64908;BME280;69061;52.236;5.188;2023-05-23T09:00:00;102294.53;;;17.40;57.22
64908;BME280;69061;52.236;5.188;2023-05-23T09:02:34;102298.00;;;17.44;56.38
64908;BME280;69061;52.236;5.188;2023-05-23T09:05:01;102304.91;;;17.42;57.10
64908;BME280;69061;52.236;5.188;2023-05-23T09:07:28;102309.94;;;17.47;57.15
64908;BME280;69061;52.236;5.188;2023-05-23T09:09:54;102308.41;;;17.53;57.15
64908;BME280;69061;52.236;5.188;2023-05-23T09:12:22;102311.84;;;17.50;56.81
64908;BME280;69061;52.236;5.188;2023-05-23T09:14:49;102304.97;;;17.53;55.77
64908;BME280;69061;52.236;5.188;2023-05-23T09:17:17;102311.44;;;17.44;56.10
64908;BME280;69061;52.236;5.188;2023-05-23T09:19:44;102303.50;;;17.66;56.28
64908;BME280;69061;52.236;5.188;2023-05-23T09:22:11;102311.38;;;17.93;55.75
64908;BME280;69061;52.236;5.188;2023-05-23T09:24:38;102319.88;;;18.06;54.96
64908;BME280;69061;52.236;5.188;2023-05-23T09:27:05;102326.84;;;18.21;53.87
64908;BME280;69061;52.236;5.188;2023-05-23T09:29:36;102322.25;;;18.29;53.09
64908;BME280;69061;52.236;5.188;2023-05-23T09:32:09;102322.25;;;18.29;52.67
64908;BME280;69061;52.236;5.188;2023-05-23T09:34:39;102332.97;;;18.11;52.32
64908;BME280;69061;52.236;5.188;2023-05-23T09:37:06;102333.66;;;18.00;54.56
64908;BME280;69061;52.236;5.188;2023-05-23T09:39:36;102325.13;;;17.91;54.79
64908;BME280;69061;52.236;5.188;2023-05-23T09:42:03;102318.97;;;17.83;54.31
64908;BME280;69061;52.236;5.188;2023-05-23T09:44:29;102325.78;;;17.66;55.50
64908;BME280;69061;52.236;5.188;2023-05-23T09:46:57;102329.53;;;17.55;54.94
64908;BME280;69061;52.236;5.188;2023-05-23T09:49:25;102329.53;;;17.51;55.34
64908;BME280;69061;52.236;5.188;2023-05-23T09:51:58;102324.16;;;17.55;54.40
64908;BME280;69061;52.236;5.188;2023-05-23T09:54:25;102317.38;;;17.72;54.22
64908;BME280;69061;52.236;5.188;2023-05-23T09:56:52;102336.72;;;17.95;53.95
64908;BME280;69061;52.236;5.188;2023-05-23T09:59:21;102325.56;;;17.93;53.16
64908;BME280;69061;52.236;5.188;2023-05-23T10:01:50;102327.88;;;17.95;52.61
64908;BME280;69061;52.236;5.188;2023-05-23T10:04:20;102338.53;;;17.80;53.96
64908;BME280;69061;52.236;5.188;2023-05-23T10:06:49;102332.81;;;17.82;54.25
64908;BME280;69061;52.236;5.188;2023-05-23T10:09:20;102345.00;;;17.68;53.65
64908;BME280;69061;52.236;5.188;2023-05-23T10:14:55;102349.25;;;17.73;53.44
64908;BME280;69061;52.236;5.188;2023-05-23T10:17:30;102337.06;;;17.90;53.15
64908;BME280;69061;52.236;5.188;2023-05-23T10:20:03;102343.69;;;18.04;52.37
64908;BME280;69061;52.236;5.188;2023-05-23T10:22:32;102339.91;;;18.19;52.36
64908;BME280;69061;52.236;5.188;2023-05-23T10:24:59;102345.25;;;18.15;52.55
64908;BME280;69061;52.236;5.188;2023-05-23T10:27:26;102342.56;;;18.15;52.06
64908;BME280;69061;52.236;5.188;2023-05-23T10:29:53;102346.78;;;18.13;52.39
64908;BME280;69061;52.236;5.188;2023-05-23T10:32:20;102354.78;;;17.95;52.38
64908;BME280;69061;52.236;5.188;2023-05-23T10:34:55;102356.59;;;17.80;53.74
64908;BME280;69061;52.236;5.188;2023-05-23T10:37:28;102366.59;;;17.83;53.05
64908;BME280;69061;52.236;5.188;2023-05-23T10:40:01;102352.69;;;17.74;53.05
64908;BME280;69061;52.236;5.188;2023-05-23T10:42:37;102352.75;;;17.84;53.46
64908;BME280;69061;52.236;5.188;2023-05-23T10:45:14;102359.03;;;17.99;53.21
64908;BME280;69061;52.236;5.188;2023-05-23T10:47:40;102367.88;;;18.00;51.81
64908;BME280;69061;52.236;5.188;2023-05-23T10:50:11;102362.56;;;18.11;51.51
64908;BME280;69061;52.236;5.188;2023-05-23T10:52:40;102357.97;;;18.15;51.28
64908;BME280;69061;52.236;5.188;2023-05-23T10:55:12;102348.78;;;18.27;51.42
64908;BME280;69061;52.236;5.188;2023-05-23T10:57:39;102345.41;;;18.55;51.50
64908;BME280;69061;52.236;5.188;2023-05-23T11:00:12;102359.38;;;18.93;49.96
64908;BME280;69061;52.236;5.188;2023-05-23T11:02:45;102350.91;;;19.16;49.78
64908;BME280;69061;52.236;5.188;2023-05-23T11:05:20;102357.06;;;19.17;49.53
64908;BME280;69061;52.236;5.188;2023-05-23T11:08:07;102352.44;;;19.03;49.81
64908;BME280;69061;52.236;5.188;2023-05-23T11:10:52;102367.06;;;18.95;50.97
64908;BME280;69061;52.236;5.188;2023-05-23T11:13:19;102369.31;;;18.85;50.79
64908;BME280;69061;52.236;5.188;2023-05-23T11:15:47;102373.16;;;18.74;51.43
64908;BME280;69061;52.236;5.188;2023-05-23T11:18:21;102369.25;;;18.60;51.48
64908;BME280;69061;52.236;5.188;2023-05-23T11:20:51;102373.84;;;18.49;51.66
64908;BME280;69061;52.236;5.188;2023-05-23T11:23:19;102363.84;;;18.46;51.84
64908;BME280;69061;52.236;5.188;2023-05-23T11:25:49;102363.88;;;18.53;52.11
64908;BME280;69061;52.236;5.188;2023-05-23T11:28:16;102372.00;;;18.67;51.54
64908;BME280;69061;52.236;5.188;2023-05-23T11:30:43;102363.50;;;18.65;51.40
64908;BME280;69061;52.236;5.188;2023-05-23T11:33:13;102363.91;;;18.71;51.40
64908;BME280;69061;52.236;5.188;2023-05-23T11:35:41;102370.47;;;18.77;50.14
64908;BME280;69061;52.236;5.188;2023-05-23T11:38:09;102367.38;;;18.79;50.27
64908;BME280;69061;52.236;5.188;2023-05-23T11:40:39;102373.56;;;18.87;49.96
64908;BME280;69061;52.236;5.188;2023-05-23T11:43:07;102373.56;;;18.83;49.90
64908;BME280;69061;52.236;5.188;2023-05-23T11:45:35;102373.94;;;18.85;49.53
64908;BME280;69061;52.236;5.188;2023-05-23T11:48:06;102369.31;;;18.75;50.00
64908;BME280;69061;52.236;5.188;2023-05-23T11:50:33;102366.25;;;18.73;50.37
64908;BME280;69061;52.236;5.188;2023-05-23T11:53:00;102378.53;;;18.74;51.08
64908;BME280;69061;52.236;5.188;2023-05-23T11:55:27;102362.00;;;18.79;51.15
64908;BME280;69061;52.236;5.188;2023-05-23T11:57:56;102359.00;;;18.98;50.32
64908;BME280;69061;52.236;5.188;2023-05-23T12:00:23;102369.38;;;19.29;49.67
64908;BME280;69061;52.236;5.188;2023-05-23T12:02:49;102364.78;;;19.37;49.72
64908;BME280;69061;52.236;5.188;2023-05-23T12:05:17;102367.84;;;19.28;49.28
64908;BME280;69061;52.236;5.188;2023-05-23T12:07:45;102367.47;;;19.22;50.01
64908;BME280;69061;52.236;5.188;2023-05-23T12:10:13;102369.38;;;19.18;50.94
64908;BME280;69061;52.236;5.188;2023-05-23T12:12:40;102372.09;;;19.18;50.38
64908;BME280;69061;52.236;5.188;2023-05-23T12:15:10;102371.31;;;19.10;50.75
64908;BME280;69061;52.236;5.188;2023-05-23T12:17:37;102378.22;;;19.00;50.79
64908;BME280;69061;52.236;5.188;2023-05-23T12:20:05;102370.53;;;18.99;51.00
64908;BME280;69061;52.236;5.188;2023-05-23T12:22:33;102380.53;;;19.06;50.60
64908;BME280;69061;52.236;5.188;2023-05-23T12:25:00;102382.47;;;19.01;50.48
64908;BME280;69061;52.236;5.188;2023-05-23T12:27:30;102378.63;;;19.10;50.09
64908;BME280;69061;52.236;5.188;2023-05-23T12:30:04;102379.78;;;19.09;49.15
64908;BME280;69061;52.236;5.188;2023-05-23T12:32:33;102379.00;;;19.08;49.21
64908;BME280;69061;52.236;5.188;2023-05-23T12:35:00;102385.56;;;19.25;48.86
64908;BME280;69061;52.236;5.188;2023-05-23T12:37:26;102386.31;;;19.29;47.93
64908;BME280;69061;52.236;5.188;2023-05-23T12:39:54;102383.63;;;19.18;47.62
64908;BME280;69061;52.236;5.188;2023-05-23T12:42:20;102377.88;;;19.09;48.22
64908;BME280;69061;52.236;5.188;2023-05-23T12:44:50;102383.22;;;19.02;48.15
64908;BME280;69061;52.236;5.188;2023-05-23T12:47:17;102380.53;;;18.98;48.26
64908;BME280;69061;52.236;5.188;2023-05-23T12:49:45;102391.31;;;19.13;49.28
64908;BME280;69061;52.236;5.188;2023-05-23T12:52:12;102390.56;;;19.16;48.36
64908;BME280;69061;52.236;5.188;2023-05-23T12:54:38;102395.56;;;19.17;48.52
64908;BME280;69061;52.236;5.188;2023-05-23T12:57:05;102388.25;;;19.25;48.21